sensor_id;sensor_type;location;lat;lon;timestamp;P1;durP1;ratioP1;P2;durP2;ratioP2
21927;SDS011;11128;51.096;17.190;2022-11-20T00:03:53;68.75;;;25.70;;
21927;SDS011;11128;51.096;17.190;2022-11-20T00:08:56;61.33;;;23.58;;
21927;SDS011;11128;51.096;17.190;2022-11-20T00:14:00;67.20;;;26.30;;
21927;SDS011;11128;51.096;17.190;2022-11-20T00:19:02;66.63;;;24.00;;
21927;SDS011;11128;51.096;17.190;2022-11-20T00:24:04;57.17;;;21.65;;
21927;SDS011;11128;51.096;17.190;2022-11-20T00:29:05;59.58;;;22.63;;
21927;SDS011;11128;51.096;17.190;2022-11-20T00:34:10;67.85;;;23.58;;
21927;SDS011;11128;51.096;17.190;2022-11-20T00:39:12;62.50;;;22.13;;
21927;SDS011;11128;51.096;17.190;2022-11-20T00:44:13;61.47;;;22.90;;
21927;SDS011;11128;51.096;17.190;2022-11-20T00:49:14;63.72;;;24.80;;
21927;SDS011;11128;51.096;17.190;2022-11-20T00:54:16;70.10;;;25.55;;
21927;SDS011;11128;51.096;17.190;2022-11-20T00:59:17;62.90;;;23.80;;
21927;SDS011;11128;51.096;17.190;2022-11-20T01:04:18;60.95;;;22.98;;
21927;SDS011;11128;51.096;17.190;2022-11-20T01:09:20;57.13;;;23.70;;
21927;SDS011;11128;51.096;17.190;2022-11-20T01:14:21;58.60;;;22.65;;
21927;SDS011;11128;51.096;17.190;2022-11-20T01:19:23;57.72;;;21.35;;
21927;SDS011;11128;51.096;17.190;2022-11-20T01:24:24;57.25;;;21.80;;
21927;SDS011;11128;51.096;17.190;2022-11-20T01:29:25;62.22;;;19.77;;
21927;SDS011;11128;51.096;17.190;2022-11-20T01:34:26;54.28;;;20.63;;
21927;SDS011;11128;51.096;17.190;2022-11-20T01:39:28;59.28;;;21.30;;
21927;SDS011;11128;51.096;17.190;2022-11-20T01:50:03;61.13;;;19.50;;
21927;SDS011;11128;51.096;17.190;2022-11-20T01:55:47;51.78;;;19.20;;
21927;SDS011;11128;51.096;17.190;2022-11-20T02:00:31;49.67;;;18.90;;
21927;SDS011;11128;51.096;17.190;2022-11-20T02:05:36;49.22;;;18.88;;
21927;SDS011;11128;51.096;17.190;2022-11-20T02:10:57;49.28;;;18.83;;
21927;SDS011;11128;51.096;17.190;2022-11-20T02:15:59;51.13;;;18.10;;
21927;SDS011;11128;51.096;17.190;2022-11-20T02:21:03;55.10;;;18.15;;
21927;SDS011;11128;51.096;17.190;2022-11-20T02:26:22;55.45;;;19.50;;
21927;SDS011;11128;51.096;17.190;2022-11-20T02:31:26;44.85;;;16.60;;
21927;SDS011;11128;51.096;17.190;2022-11-20T02:36:28;44.75;;;18.27;;
21927;SDS011;11128;51.096;17.190;2022-11-20T02:41:33;42.33;;;17.33;;
21927;SDS011;11128;51.096;17.190;2022-11-20T02:46:35;47.40;;;17.35;;
21927;SDS011;11128;51.096;17.190;2022-11-20T02:51:37;49.88;;;18.48;;
21927;SDS011;11128;51.096;17.190;2022-11-20T02:56:38;53.10;;;18.63;;
21927;SDS011;11128;51.096;17.190;2022-11-20T03:01:40;46.00;;;18.25;;
21927;SDS011;11128;51.096;17.190;2022-11-20T03:06:41;49.42;;;19.48;;
21927;SDS011;11128;51.096;17.190;2022-11-20T03:11:43;49.35;;;18.25;;
21927;SDS011;11128;51.096;17.190;2022-11-20T03:16:44;49.17;;;19.27;;
21927;SDS011;11128;51.096;17.190;2022-11-20T03:21:45;60.22;;;20.15;;
21927;SDS011;11128;51.096;17.190;2022-11-20T03:26:47;103.32;;;34.58;;
21927;SDS011;11128;51.096;17.190;2022-11-20T03:31:48;98.72;;;30.70;;
21927;SDS011;11128;51.096;17.190;2022-11-20T03:36:49;116.93;;;38.25;;
21927;SDS011;11128;51.096;17.190;2022-11-20T03:41:51;72.22;;;25.05;;
21927;SDS011;11128;51.096;17.190;2022-11-20T03:46:52;61.53;;;20.33;;
21927;SDS011;11128;51.096;17.190;2022-11-20T03:51:53;62.58;;;20.45;;
21927;SDS011;11128;51.096;17.190;2022-11-20T03:56:55;60.38;;;21.83;;
21927;SDS011;11128;51.096;17.190;2022-11-20T04:01:56;73.60;;;26.73;;
21927;SDS011;11128;51.096;17.190;2022-11-20T04:06:58;81.60;;;27.70;;
21927;SDS011;11128;51.096;17.190;2022-11-20T04:11:59;72.70;;;24.20;;
21927;SDS011;11128;51.096;17.190;2022-11-20T04:17:00;57.78;;;21.90;;
21927;SDS011;11128;51.096;17.190;2022-11-20T04:22:01;65.70;;;22.30;;
21927;SDS011;11128;51.096;17.190;2022-11-20T04:27:03;57.30;;;21.98;;
21927;SDS011;11128;51.096;17.190;2022-11-20T04:32:04;53.55;;;20.10;;
21927;SDS011;11128;51.096;17.190;2022-11-20T04:37:05;53.45;;;19.27;;
21927;SDS011;11128;51.096;17.190;2022-11-20T04:42:08;57.05;;;18.27;;
21927;SDS011;11128;51.096;17.190;2022-11-20T04:47:28;51.35;;;19.25;;
21927;SDS011;11128;51.096;17.190;2022-11-20T04:52:29;46.65;;;19.08;;
21927;SDS011;11128;51.096;17.190;2022-11-20T04:57:31;52.42;;;19.45;;
21927;SDS011;11128;51.096;17.190;2022-11-20T05:02:32;54.25;;;21.27;;
21927;SDS011;11128;51.096;17.190;2022-11-20T05:07:33;50.97;;;18.95;;
21927;SDS011;11128;51.096;17.190;2022-11-20T05:12:35;43.45;;;17.75;;
21927;SDS011;11128;51.096;17.190;2022-11-20T05:17:36;43.95;;;16.98;;
21927;SDS011;11128;51.096;17.190;2022-11-20T05:22:40;44.22;;;17.60;;
21927;SDS011;11128;51.096;17.190;2022-11-20T05:27:42;51.45;;;18.45;;
21927;SDS011;11128;51.096;17.190;2022-11-20T05:32:43;49.20;;;18.15;;
21927;SDS011;11128;51.096;17.190;2022-11-20T05:37:44;56.75;;;22.00;;
21927;SDS011;11128;51.096;17.190;2022-11-20T05:42:45;50.25;;;19.77;;
21927;SDS011;11128;51.096;17.190;2022-11-20T05:47:47;49.53;;;18.92;;
21927;SDS011;11128;51.096;17.190;2022-11-20T05:52:48;46.42;;;18.27;;
21927;SDS011;11128;51.096;17.190;2022-11-20T05:57:50;52.58;;;19.67;;
21927;SDS011;11128;51.096;17.190;2022-11-20T06:02:54;50.30;;;18.85;;
21927;SDS011;11128;51.096;17.190;2022-11-20T06:07:55;56.13;;;19.20;;
21927;SDS011;11128;51.096;17.190;2022-11-20T06:12:57;40.53;;;19.15;;
21927;SDS011;11128;51.096;17.190;2022-11-20T06:17:58;45.28;;;18.85;;
21927;SDS011;11128;51.096;17.190;2022-11-20T06:23:00;57.35;;;18.20;;
21927;SDS011;11128;51.096;17.190;2022-11-20T06:28:02;49.40;;;18.52;;
21927;SDS011;11128;51.096;17.190;2022-11-20T06:33:03;59.30;;;22.08;;
21927;SDS011;11128;51.096;17.190;2022-11-20T06:38:05;56.75;;;20.70;;
21927;SDS011;11128;51.096;17.190;2022-11-20T06:43:07;63.30;;;22.02;;
21927;SDS011;11128;51.096;17.190;2022-11-20T06:48:09;66.30;;;21.30;;
21927;SDS011;11128;51.096;17.190;2022-11-20T06:53:10;61.90;;;20.55;;
21927;SDS011;11128;51.096;17.190;2022-11-20T06:58:12;50.53;;;19.98;;
21927;SDS011;11128;51.096;17.190;2022-11-20T07:03:14;48.85;;;21.17;;
21927;SDS011;11128;51.096;17.190;2022-11-20T07:08:16;52.30;;;21.63;;
21927;SDS011;11128;51.096;17.190;2022-11-20T07:13:17;56.03;;;20.42;;
21927;SDS011;11128;51.096;17.190;2022-11-20T07:18:19;103.93;;;38.67;;
21927;SDS011;11128;51.096;17.190;2022-11-20T07:23:20;141.20;;;46.45;;
21927;SDS011;11128;51.096;17.190;2022-11-20T07:28:21;84.00;;;31.38;;
21927;SDS011;11128;51.096;17.190;2022-11-20T07:33:23;65.38;;;24.13;;
21927;SDS011;11128;51.096;17.190;2022-11-20T07:38:24;48.60;;;19.83;;
21927;SDS011;11128;51.096;17.190;2022-11-20T07:43:25;53.28;;;20.65;;
21927;SDS011;11128;51.096;17.190;2022-11-20T07:48:27;57.80;;;21.85;;
21927;SDS011;11128;51.096;17.190;2022-11-20T07:53:28;61.35;;;23.70;;
21927;SDS011;11128;51.096;17.190;2022-11-20T07:58:30;54.92;;;21.48;;
21927;SDS011;11128;51.096;17.190;2022-11-20T08:03:33;56.92;;;23.55;;
21927;SDS011;11128;51.096;17.190;2022-11-20T08:08:35;59.90;;;21.98;;
21927;SDS011;11128;51.096;17.190;2022-11-20T08:13:36;52.80;;;21.70;;
21927;SDS011;11128;51.096;17.190;2022-11-20T08:18:57;51.23;;;19.60;;
21927;SDS011;11128;51.096;17.190;2022-11-20T08:23:58;41.90;;;16.92;;
21927;SDS011;11128;51.096;17.190;2022-11-20T08:29:00;38.88;;;16.20;;
21927;SDS011;11128;51.096;17.190;2022-11-20T08:34:01;37.40;;;15.48;;
21927;SDS011;11128;51.096;17.190;2022-11-20T08:39:03;35.75;;;16.80;;
21927;SDS011;11128;51.096;17.190;2022-11-20T08:44:07;36.35;;;15.68;;
21927;SDS011;11128;51.096;17.190;2022-11-20T08:49:10;42.55;;;17.83;;
21927;SDS011;11128;51.096;17.190;2022-11-20T08:54:12;41.60;;;17.38;;
21927;SDS011;11128;51.096;17.190;2022-11-20T08:59:14;40.05;;;18.02;;
21927;SDS011;11128;51.096;17.190;2022-11-20T09:04:15;40.42;;;16.85;;
21927;SDS011;11128;51.096;17.190;2022-11-20T09:09:17;38.80;;;16.83;;
21927;SDS011;11128;51.096;17.190;2022-11-20T09:14:19;42.45;;;17.73;;
21927;SDS011;11128;51.096;17.190;2022-11-20T09:19:23;35.75;;;16.90;;
21927;SDS011;11128;51.096;17.190;2022-11-20T09:24:25;37.15;;;17.38;;
21927;SDS011;11128;51.096;17.190;2022-11-20T09:29:27;29.55;;;14.85;;
21927;SDS011;11128;51.096;17.190;2022-11-20T09:34:28;31.98;;;14.98;;
21927;SDS011;11128;51.096;17.190;2022-11-20T09:39:30;29.70;;;14.23;;
21927;SDS011;11128;51.096;17.190;2022-11-20T09:44:40;33.53;;;14.18;;
21927;SDS011;11128;51.096;17.190;2022-11-20T09:55:03;39.13;;;18.90;;
21927;SDS011;11128;51.096;17.190;2022-11-20T10:00:11;33.53;;;15.95;;
21927;SDS011;11128;51.096;17.190;2022-11-20T10:05:23;32.90;;;16.05;;
21927;SDS011;11128;51.096;17.190;2022-11-20T10:10:34;38.42;;;16.55;;
21927;SDS011;11128;51.096;17.190;2022-11-20T10:15:47;34.15;;;17.05;;
21927;SDS011;11128;51.096;17.190;2022-11-20T10:21:30;38.95;;;17.48;;
21927;SDS011;11128;51.096;17.190;2022-11-20T10:26:49;31.35;;;15.40;;
21927;SDS011;11128;51.096;17.190;2022-11-20T10:32:24;33.70;;;14.95;;
21927;SDS011;11128;51.096;17.190;2022-11-20T10:37:27;32.72;;;14.82;;
21927;SDS011;11128;51.096;17.190;2022-11-20T10:42:34;29.63;;;13.30;;
21927;SDS011;11128;51.096;17.190;2022-11-20T10:47:38;24.25;;;12.40;;
21927;SDS011;11128;51.096;17.190;2022-11-20T11:03:27;26.42;;;13.15;;
21927;SDS011;11128;51.096;17.190;2022-11-20T11:08:32;27.58;;;13.23;;
21927;SDS011;11128;51.096;17.190;2022-11-20T11:13:38;26.02;;;12.98;;
21927;SDS011;11128;51.096;17.190;2022-11-20T11:18:39;25.05;;;11.77;;
21927;SDS011;11128;51.096;17.190;2022-11-20T11:23:43;24.88;;;11.98;;
21927;SDS011;11128;51.096;17.190;2022-11-20T11:28:57;20.10;;;10.38;;
21927;SDS011;11128;51.096;17.190;2022-11-20T11:34:12;24.10;;;11.80;;
21927;SDS011;11128;51.096;17.190;2022-11-20T11:39:16;21.55;;;11.50;;
21927;SDS011;11128;51.096;17.190;2022-11-20T11:44:21;22.77;;;11.43;;
21927;SDS011;11128;51.096;17.190;2022-11-20T11:49:43;20.52;;;10.70;;
21927;SDS011;11128;51.096;17.190;2022-11-20T11:54:57;22.73;;;10.70;;
21927;SDS011;11128;51.096;17.190;2022-11-20T12:05:24;18.50;;;9.23;;
21927;SDS011;11128;51.096;17.190;2022-11-20T12:16:00;22.30;;;11.20;;
21927;SDS011;11128;51.096;17.190;2022-11-20T12:26:27;19.70;;;9.98;;
21927;SDS011;11128;51.096;17.190;2022-11-20T12:42:50;20.58;;;9.68;;
21927;SDS011;11128;51.096;17.190;2022-11-20T12:49:21;22.05;;;10.68;;
21927;SDS011;11128;51.096;17.190;2022-11-20T13:15:44;16.45;;;7.07;;
21927;SDS011;11128;51.096;17.190;2022-11-20T13:20:49;15.27;;;8.00;;
21927;SDS011;11128;51.096;17.190;2022-11-20T13:26:02;14.13;;;7.88;;
21927;SDS011;11128;51.096;17.190;2022-11-20T13:31:24;14.27;;;8.13;;
21927;SDS011;11128;51.096;17.190;2022-11-20T13:36:31;16.63;;;8.60;;
21927;SDS011;11128;51.096;17.190;2022-11-20T13:41:38;14.45;;;8.32;;
21927;SDS011;11128;51.096;17.190;2022-11-20T13:46:46;17.23;;;8.40;;
21927;SDS011;11128;51.096;17.190;2022-11-20T13:51:49;18.77;;;8.52;;
21927;SDS011;11128;51.096;17.190;2022-11-20T14:02:15;20.83;;;9.73;;
21927;SDS011;11128;51.096;17.190;2022-11-20T14:07:18;17.88;;;9.20;;
21927;SDS011;11128;51.096;17.190;2022-11-20T14:12:23;16.90;;;8.90;;
21927;SDS011;11128;51.096;17.190;2022-11-20T14:17:33;18.92;;;9.32;;
21927;SDS011;11128;51.096;17.190;2022-11-20T14:22:35;22.35;;;10.70;;
21927;SDS011;11128;51.096;17.190;2022-11-20T14:27:38;18.73;;;9.05;;
21927;SDS011;11128;51.096;17.190;2022-11-20T14:32:41;22.60;;;10.90;;
21927;SDS011;11128;51.096;17.190;2022-11-20T14:37:44;22.85;;;10.68;;
21927;SDS011;11128;51.096;17.190;2022-11-20T14:42:46;25.60;;;10.20;;
21927;SDS011;11128;51.096;17.190;2022-11-20T14:47:47;29.10;;;12.40;;
21927;SDS011;11128;51.096;17.190;2022-11-20T14:52:50;27.88;;;12.27;;
21927;SDS011;11128;51.096;17.190;2022-11-20T14:57:57;25.80;;;11.48;;
21927;SDS011;11128;51.096;17.190;2022-11-20T15:03:03;29.83;;;12.80;;
21927;SDS011;11128;51.096;17.190;2022-11-20T15:08:16;24.33;;;11.70;;
21927;SDS011;11128;51.096;17.190;2022-11-20T15:18:38;24.95;;;11.00;;
21927;SDS011;11128;51.096;17.190;2022-11-20T15:23:43;23.88;;;11.02;;
21927;SDS011;11128;51.096;17.190;2022-11-20T15:28:46;28.58;;;12.32;;
21927;SDS011;11128;51.096;17.190;2022-11-20T15:33:48;30.77;;;14.10;;
21927;SDS011;11128;51.096;17.190;2022-11-20T15:38:50;53.38;;;21.52;;
21927;SDS011;11128;51.096;17.190;2022-11-20T15:43:51;79.43;;;35.42;;
21927;SDS011;11128;51.096;17.190;2022-11-20T15:48:56;115.25;;;45.95;;
21927;SDS011;11128;51.096;17.190;2022-11-20T15:54:00;94.40;;;35.88;;
21927;SDS011;11128;51.096;17.190;2022-11-20T15:59:04;58.50;;;25.45;;
21927;SDS011;11128;51.096;17.190;2022-11-20T16:04:12;73.68;;;30.92;;
21927;SDS011;11128;51.096;17.190;2022-11-20T16:09:14;80.43;;;32.08;;
21927;SDS011;11128;51.096;17.190;2022-11-20T16:14:16;77.47;;;29.90;;
21927;SDS011;11128;51.096;17.190;2022-11-20T16:19:36;77.68;;;31.77;;
21927;SDS011;11128;51.096;17.190;2022-11-20T16:24:37;70.15;;;30.88;;
21927;SDS011;11128;51.096;17.190;2022-11-20T16:29:38;72.60;;;30.00;;
21927;SDS011;11128;51.096;17.190;2022-11-20T16:34:39;68.30;;;28.55;;
21927;SDS011;11128;51.096;17.190;2022-11-20T16:39:40;68.32;;;28.63;;
21927;SDS011;11128;51.096;17.190;2022-11-20T16:44:43;92.53;;;35.75;;
21927;SDS011;11128;51.096;17.190;2022-11-20T16:49:46;83.38;;;34.97;;
21927;SDS011;11128;51.096;17.190;2022-11-20T16:54:48;90.70;;;35.63;;
21927;SDS011;11128;51.096;17.190;2022-11-20T16:59:49;87.60;;;34.72;;
21927;SDS011;11128;51.096;17.190;2022-11-20T17:04:53;75.45;;;31.45;;
21927;SDS011;11128;51.096;17.190;2022-11-20T17:09:55;81.63;;;32.25;;
21927;SDS011;11128;51.096;17.190;2022-11-20T17:14:57;79.97;;;30.70;;
21927;SDS011;11128;51.096;17.190;2022-11-20T17:19:59;76.65;;;28.92;;
21927;SDS011;11128;51.096;17.190;2022-11-20T17:25:00;76.18;;;28.83;;
21927;SDS011;11128;51.096;17.190;2022-11-20T17:30:03;66.35;;;25.13;;
21927;SDS011;11128;51.096;17.190;2022-11-20T17:35:04;54.53;;;23.20;;
21927;SDS011;11128;51.096;17.190;2022-11-20T17:40:06;53.85;;;21.27;;
21927;SDS011;11128;51.096;17.190;2022-11-20T17:45:07;41.78;;;19.15;;
21927;SDS011;11128;51.096;17.190;2022-11-20T17:50:09;47.78;;;18.98;;
21927;SDS011;11128;51.096;17.190;2022-11-20T17:55:10;42.10;;;16.98;;
21927;SDS011;11128;51.096;17.190;2022-11-20T18:00:12;43.42;;;17.42;;
21927;SDS011;11128;51.096;17.190;2022-11-20T18:05:16;39.75;;;17.05;;
21927;SDS011;11128;51.096;17.190;2022-11-20T18:10:17;39.40;;;16.67;;
21927;SDS011;11128;51.096;17.190;2022-11-20T18:15:19;38.85;;;15.82;;
21927;SDS011;11128;51.096;17.190;2022-11-20T18:20:20;38.90;;;16.63;;
21927;SDS011;11128;51.096;17.190;2022-11-20T18:25:22;35.03;;;15.45;;
21927;SDS011;11128;51.096;17.190;2022-11-20T18:30:23;36.75;;;14.38;;
21927;SDS011;11128;51.096;17.190;2022-11-20T18:35:25;46.95;;;19.65;;
21927;SDS011;11128;51.096;17.190;2022-11-20T18:40:27;45.78;;;18.02;;
21927;SDS011;11128;51.096;17.190;2022-11-20T18:45:28;47.63;;;17.92;;
21927;SDS011;11128;51.096;17.190;2022-11-20T18:50:29;44.75;;;17.30;;
21927;SDS011;11128;51.096;17.190;2022-11-20T18:55:31;38.58;;;16.80;;
21927;SDS011;11128;51.096;17.190;2022-11-20T19:00:32;42.55;;;17.33;;
21927;SDS011;11128;51.096;17.190;2022-11-20T19:05:34;47.85;;;19.67;;
21927;SDS011;11128;51.096;17.190;2022-11-20T19:10:36;49.22;;;19.48;;
21927;SDS011;11128;51.096;17.190;2022-11-20T19:15:38;39.65;;;17.80;;
21927;SDS011;11128;51.096;17.190;2022-11-20T19:20:39;47.83;;;20.27;;
21927;SDS011;11128;51.096;17.190;2022-11-20T19:25:41;55.53;;;22.90;;
21927;SDS011;11128;51.096;17.190;2022-11-20T19:30:43;62.58;;;26.48;;
21927;SDS011;11128;51.096;17.190;2022-11-20T19:35:45;84.15;;;31.63;;
21927;SDS011;11128;51.096;17.190;2022-11-20T19:40:46;103.18;;;35.47;;
21927;SDS011;11128;51.096;17.190;2022-11-20T19:45:48;76.63;;;29.73;;
21927;SDS011;11128;51.096;17.190;2022-11-20T19:50:49;108.38;;;36.35;;
21927;SDS011;11128;51.096;17.190;2022-11-20T19:55:54;123.75;;;40.95;;
21927;SDS011;11128;51.096;17.190;2022-11-20T20:00:56;109.65;;;40.97;;
21927;SDS011;11128;51.096;17.190;2022-11-20T20:06:06;102.25;;;39.88;;
21927;SDS011;11128;51.096;17.190;2022-11-20T20:16:20;94.90;;;40.33;;
21927;SDS011;11128;51.096;17.190;2022-11-20T20:21:23;88.65;;;32.88;;
21927;SDS011;11128;51.096;17.190;2022-11-20T20:26:26;79.70;;;30.50;;
21927;SDS011;11128;51.096;17.190;2022-11-20T20:31:30;75.53;;;28.73;;
21927;SDS011;11128;51.096;17.190;2022-11-20T20:36:33;77.03;;;30.02;;
21927;SDS011;11128;51.096;17.190;2022-11-20T20:41:34;78.43;;;30.05;;
21927;SDS011;11128;51.096;17.190;2022-11-20T20:46:35;73.13;;;28.25;;
21927;SDS011;11128;51.096;17.190;2022-11-20T20:51:37;78.97;;;30.27;;
21927;SDS011;11128;51.096;17.190;2022-11-20T20:56:38;75.05;;;29.27;;
21927;SDS011;11128;51.096;17.190;2022-11-20T21:01:40;84.28;;;28.90;;
21927;SDS011;11128;51.096;17.190;2022-11-20T21:06:41;80.72;;;28.27;;
21927;SDS011;11128;51.096;17.190;2022-11-20T21:11:43;77.20;;;30.50;;
21927;SDS011;11128;51.096;17.190;2022-11-20T21:16:44;82.28;;;32.25;;
21927;SDS011;11128;51.096;17.190;2022-11-20T21:21:45;93.47;;;34.28;;
21927;SDS011;11128;51.096;17.190;2022-11-20T21:27:00;95.03;;;35.78;;
21927;SDS011;11128;51.096;17.190;2022-11-20T21:32:02;104.03;;;39.08;;
21927;SDS011;11128;51.096;17.190;2022-11-20T21:37:04;112.30;;;39.45;;
21927;SDS011;11128;51.096;17.190;2022-11-20T21:42:05;116.35;;;43.47;;
21927;SDS011;11128;51.096;17.190;2022-11-20T21:47:07;143.95;;;50.80;;
21927;SDS011;11128;51.096;17.190;2022-11-20T21:52:08;168.90;;;62.50;;
21927;SDS011;11128;51.096;17.190;2022-11-20T21:57:09;162.75;;;62.45;;
21927;SDS011;11128;51.096;17.190;2022-11-20T22:02:11;162.48;;;58.08;;
21927;SDS011;11128;51.096;17.190;2022-11-20T22:07:12;140.07;;;56.38;;
21927;SDS011;11128;51.096;17.190;2022-11-20T22:12:14;144.90;;;55.80;;
21927;SDS011;11128;51.096;17.190;2022-11-20T22:17:15;132.98;;;54.08;;
21927;SDS011;11128;51.096;17.190;2022-11-20T22:22:17;133.45;;;48.97;;
21927;SDS011;11128;51.096;17.190;2022-11-20T22:27:18;127.75;;;49.10;;
21927;SDS011;11128;51.096;17.190;2022-11-20T22:32:19;120.15;;;46.40;;
21927;SDS011;11128;51.096;17.190;2022-11-20T22:37:21;126.95;;;44.92;;
21927;SDS011;11128;51.096;17.190;2022-11-20T22:42:22;120.22;;;42.67;;
21927;SDS011;11128;51.096;17.190;2022-11-20T22:47:23;114.45;;;42.55;;
21927;SDS011;11128;51.096;17.190;2022-11-20T22:52:24;112.60;;;41.22;;
21927;SDS011;11128;51.096;17.190;2022-11-20T22:57:26;113.82;;;41.03;;
21927;SDS011;11128;51.096;17.190;2022-11-20T23:02:27;119.35;;;42.30;;
21927;SDS011;11128;51.096;17.190;2022-11-20T23:07:29;106.18;;;40.05;;
21927;SDS011;11128;51.096;17.190;2022-11-20T23:12:32;105.97;;;39.95;;
21927;SDS011;11128;51.096;17.190;2022-11-20T23:17:34;106.72;;;40.63;;
21927;SDS011;11128;51.096;17.190;2022-11-20T23:22:35;119.20;;;41.05;;
21927;SDS011;11128;51.096;17.190;2022-11-20T23:27:36;112.75;;;39.88;;
21927;SDS011;11128;51.096;17.190;2022-11-20T23:32:38;114.82;;;42.45;;
21927;SDS011;11128;51.096;17.190;2022-11-20T23:37:39;137.75;;;48.20;;
21927;SDS011;11128;51.096;17.190;2022-11-20T23:42:41;111.25;;;37.63;;
21927;SDS011;11128;51.096;17.190;2022-11-20T23:48:02;89.88;;;33.15;;
21927;SDS011;11128;51.096;17.190;2022-11-20T23:53:04;124.85;;;43.00;;
21927;SDS011;11128;51.096;17.190;2022-11-20T23:58:05;95.43;;;31.42;;
